Time;durP1;ratioP1;P1;durP2;ratioP2;P2;SDS_P1;SDS_P2;PMS_P1;PMS_P2;Temp;Humidity;BMP_temperature;BMP_pressure;BME280_temperature;BME280_humidity;BME280_pressure;Samples;Min_cycle;Max_cycle;Signal;HPM_P1;HPM_P2
2023/05/26 00:00:23;;;;;;;;;;;;;;;17.53;77.21;99421.39;67902;1276;1016207;-73
2023/05/26 00:03:48;;;;;;;;;;;;;;;17.46;77.66;99423.55;67902;1276;1016373;-74
2023/05/26 00:06:52;;;;;;;;;;;;;;;17.61;77.16;99419.52;67862;1276;1016327;-70
2023/05/26 00:09:55;;;;;;;;;;;;;;;17.82;76.59;99420.27;67893;1276;1016414;-67
2023/05/26 00:12:58;;;;;;;;;;;;;;;17.91;76.63;99421.19;67937;1276;1015945;-66
2023/05/26 00:16:01;;;;;;;;;;;;;;;18.01;76.52;99421.62;65274;1276;5461004;-69
2023/05/26 00:19:07;;;;;;;;;;;;;;;18.10;76.34;99417.16;67915;1276;1016375;-73
2023/05/26 00:22:13;;;;;;;;;;;;;;;18.19;76.14;99421.35;67916;1276;1016734;-64
2023/05/26 00:25:25;;;;;;;;;;;;;;;18.26;76.09;99415.45;67810;1276;1016402;-63
2023/05/26 00:28:28;;;;;;;;;;;;;;;18.11;76.88;99417.20;67944;1276;1016453;-63
2023/05/26 00:31:31;;;;;;;;;;;;;;;18.08;77.10;99418.40;67917;1276;1016078;-72
2023/05/26 00:34:34;;;;;;;;;;;;;;;17.89;78.35;99412.67;67920;1276;1015993;-72
2023/05/26 00:37:37;;;;;;;;;;;;;;;17.82;78.89;99411.14;67900;1276;1016106;-63
2023/05/26 00:40:40;;;;;;;;;;;;;;;17.95;78.32;99410.98;67930;1276;1018973;-72
2023/05/26 00:43:43;;;;;;;;;;;;;;;17.74;79.63;99407.88;67892;1276;1016018;-64
2023/05/26 00:50:24;;;;;;;;;;;;;;;17.78;78.06;99403.27;67885;1276;1016489;-63
2023/05/26 00:53:26;;;;;;;;;;;;;;;17.88;77.65;99400.52;67938;1276;1016236;-73
2023/05/26 00:56:31;;;;;;;;;;;;;;;18.07;76.33;99407.14;67919;1276;1016370;-71
2023/05/26 00:59:34;;;;;;;;;;;;;;;18.14;75.81;99406.34;67903;1276;1016525;-63
2023/05/26 01:02:39;;;;;;;;;;;;;;;18.23;74.85;99401.54;67893;1276;1016476;-72
2023/05/26 01:05:42;;;;;;;;;;;;;;;18.11;74.93;99402.23;67913;1276;1016192;-69
2023/05/26 01:08:44;;;;;;;;;;;;;;;18.03;74.88;99402.33;67896;1276;1016196;-73
2023/05/26 01:11:47;;;;;;;;;;;;;;;17.99;74.86;99404.78;67945;1276;1015771;-63
2023/05/26 01:14:51;;;;;;;;;;;;;;;17.92;75.26;99407.48;67897;1276;1016588;-73
2023/05/26 01:17:55;;;;;;;;;;;;;;;17.74;75.46;99409.11;67883;1276;1016204;-63
2023/05/26 01:20:58;;;;;;;;;;;;;;;17.59;75.90;99410.64;67867;1276;1016492;-73
2023/05/26 01:24:07;;;;;;;;;;;;;;;17.35;77.18;99402.73;67925;1276;1016161;-72
2023/05/26 01:27:10;;;;;;;;;;;;;;;17.33;77.40;99400.88;67914;1276;1018252;-72
2023/05/26 01:30:12;;;;;;;;;;;;;;;17.39;77.04;99400.63;67955;1276;1018880;-63
2023/05/26 01:33:16;;;;;;;;;;;;;;;17.34;77.42;99401.15;67906;1276;1018298;-64
2023/05/26 01:36:19;;;;;;;;;;;;;;;17.30;77.39;99399.88;67878;1276;1016499;-74
2023/05/26 01:39:22;;;;;;;;;;;;;;;17.21;77.29;99400.61;67897;1276;1016367;-64
2023/05/26 01:42:25;;;;;;;;;;;;;;;17.14;76.64;99402.40;67924;1276;1018329;-64
2023/05/26 01:45:28;;;;;;;;;;;;;;;17.07;76.84;99398.00;67886;1276;1016386;-63
2023/05/26 01:48:31;;;;;;;;;;;;;;;16.94;77.03;99392.98;67897;1276;1016388;-68
2023/05/26 01:51:35;;;;;;;;;;;;;;;16.83;76.54;99392.04;67928;1276;1016495;-64
2023/05/26 01:54:38;;;;;;;;;;;;;;;16.75;77.35;99387.02;67830;1276;1016373;-63
2023/05/26 01:57:40;;;;;;;;;;;;;;;16.70;77.64;99386.89;67909;1276;1019525;-69
2023/05/26 02:00:44;;;;;;;;;;;;;;;16.67;77.99;99383.95;67898;1276;1016275;-63
2023/05/26 02:03:47;;;;;;;;;;;;;;;16.55;78.58;99384.19;67952;1276;1016243;-64
2023/05/26 02:06:52;;;;;;;;;;;;;;;16.45;79.30;99385.61;67904;1276;1016117;-64
2023/05/26 02:09:55;;;;;;;;;;;;;;;16.47;79.85;99389.21;67936;1276;1016264;-72
2023/05/26 02:12:58;;;;;;;;;;;;;;;16.31;79.07;99389.11;67905;1276;1018871;-74
2023/05/26 02:16:01;;;;;;;;;;;;;;;16.15;79.00;99393.34;67935;1276;1016220;-74
2023/05/26 02:19:04;;;;;;;;;;;;;;;16.13;79.32;99388.39;67902;1276;1016271;-74
2023/05/26 02:22:07;;;;;;;;;;;;;;;16.02;80.76;99387.98;67900;1276;1016802;-73
2023/05/26 02:25:10;;;;;;;;;;;;;;;15.79;82.57;99388.95;67904;1276;1016352;-63
2023/05/26 02:28:13;;;;;;;;;;;;;;;15.89;79.11;99387.85;67910;1276;1016571;-63
2023/05/26 02:31:16;;;;;;;;;;;;;;;15.80;77.51;99389.56;67905;1276;1016339;-64
2023/05/26 02:34:23;;;;;;;;;;;;;;;15.75;77.65;99386.88;67899;1276;1016060;-69
2023/05/26 02:37:27;;;;;;;;;;;;;;;15.64;79.46;99384.56;67861;1276;1016306;-64
2023/05/26 02:40:31;;;;;;;;;;;;;;;15.78;79.48;99387.06;67881;1276;1015740;-66
2023/05/26 02:43:35;;;;;;;;;;;;;;;15.72;79.00;99387.52;67939;1276;1016482;-74
2023/05/26 02:46:38;;;;;;;;;;;;;;;15.39;80.20;99384.22;67871;1276;1016524;-74
2023/05/26 02:49:42;;;;;;;;;;;;;;;15.27;80.24;99388.27;67901;1276;1016440;-67
2023/05/26 02:52:45;;;;;;;;;;;;;;;15.11;81.02;99386.55;67894;1276;1016098;-73
2023/05/26 02:55:49;;;;;;;;;;;;;;;15.37;80.40;99388.95;67874;1276;1016070;-64
2023/05/26 02:58:54;;;;;;;;;;;;;;;15.45;81.26;99391.21;67949;1276;1016647;-69
2023/05/26 03:01:57;;;;;;;;;;;;;;;15.66;78.78;99393.73;67892;1276;1016468;-73
2023/05/26 03:05:03;;;;;;;;;;;;;;;15.62;78.16;99397.23;67944;1276;1016427;-65
2023/05/26 03:08:07;;;;;;;;;;;;;;;15.62;77.97;99396.02;67940;1276;1016439;-74
2023/05/26 03:11:11;;;;;;;;;;;;;;;15.60;78.96;99392.91;67896;1276;1016246;-74
2023/05/26 03:14:15;;;;;;;;;;;;;;;15.63;79.52;99390.09;67918;1276;1016971;-70
2023/05/26 03:17:18;;;;;;;;;;;;;;;15.75;80.20;99391.89;67934;1276;1015769;-74
2023/05/26 03:20:22;;;;;;;;;;;;;;;15.95;80.21;99395.38;67882;1276;1015845;-75
2023/05/26 03:23:28;;;;;;;;;;;;;;;16.21;79.68;99394.33;67931;1276;1016483;-74
2023/05/26 03:26:31;;;;;;;;;;;;;;;16.41;77.74;99397.89;67883;1276;1016137;-74
2023/05/26 03:29:34;;;;;;;;;;;;;;;16.45;78.08;99398.13;67931;1276;1016456;-73
2023/05/26 03:32:39;;;;;;;;;;;;;;;16.44;77.59;99398.05;67948;1276;1016460;-74
2023/05/26 03:35:42;;;;;;;;;;;;;;;16.39;77.05;99394.70;67903;1276;1016715;-74
2023/05/26 03:38:46;;;;;;;;;;;;;;;16.49;76.01;99395.89;67915;1276;1016488;-74
2023/05/26 03:41:49;;;;;;;;;;;;;;;16.53;75.27;99399.70;67906;1276;1018112;-74
2023/05/26 03:44:53;;;;;;;;;;;;;;;16.61;75.22;99399.95;67949;1276;1016487;-67
2023/05/26 03:47:57;;;;;;;;;;;;;;;16.71;75.83;99402.72;67916;1276;1016019;-65
2023/05/26 03:51:00;;;;;;;;;;;;;;;16.88;77.03;99403.39;67912;1276;1016480;-74
2023/05/26 03:54:04;;;;;;;;;;;;;;;16.98;76.43;99404.19;67905;1276;1016792;-70
2023/05/26 03:57:08;;;;;;;;;;;;;;;17.09;75.85;99401.58;67870;1276;1016028;-63
2023/05/26 04:00:12;;;;;;;;;;;;;;;17.08;76.25;99401.77;67889;1276;1017168;-74
2023/05/26 04:03:15;;;;;;;;;;;;;;;17.24;76.43;99401.27;67939;1276;1016442;-63
2023/05/26 04:06:20;;;;;;;;;;;;;;;17.36;77.06;99406.14;67884;1276;1015911;-63
2023/05/26 04:09:23;;;;;;;;;;;;;;;17.58;76.83;99413.77;67942;1276;1016442;-72
2023/05/26 04:12:27;;;;;;;;;;;;;;;17.75;76.46;99413.11;67884;1276;1016373;-71
2023/05/26 04:15:30;;;;;;;;;;;;;;;17.96;76.55;99416.13;67882;1276;1016401;-69
2023/05/26 04:18:34;;;;;;;;;;;;;;;18.19;76.21;99411.31;67918;1276;1016422;-72
2023/05/26 04:21:37;;;;;;;;;;;;;;;18.30;76.09;99410.67;67899;1276;1016370;-72
2023/05/26 04:24:41;;;;;;;;;;;;;;;18.34;76.32;99411.11;67873;1276;1016459;-70
2023/05/26 04:27:44;;;;;;;;;;;;;;;18.50;76.88;99416.83;67905;1276;1016195;-64
2023/05/26 04:30:47;;;;;;;;;;;;;;;18.66;76.73;99422.23;67931;1276;1016724;-72
2023/05/26 04:33:53;;;;;;;;;;;;;;;18.69;75.96;99423.05;67913;1276;1016301;-63
2023/05/26 04:37:03;;;;;;;;;;;;;;;18.51;76.44;99420.41;67938;1276;1017823;-72
2023/05/26 04:40:09;;;;;;;;;;;;;;;18.51;76.83;99418.47;67887;1276;1016356;-72
2023/05/26 04:43:12;;;;;;;;;;;;;;;18.48;77.23;99417.70;67935;1276;1016429;-64
2023/05/26 04:46:16;;;;;;;;;;;;;;;18.58;77.64;99423.27;67856;1276;1016689;-70
2023/05/26 04:49:22;;;;;;;;;;;;;;;18.69;77.08;99422.64;67885;1276;1016046;-70
2023/05/26 04:52:27;;;;;;;;;;;;;;;18.71;76.61;99422.45;67943;1276;1016294;-63
2023/05/26 04:55:30;;;;;;;;;;;;;;;18.76;76.70;99423.02;67892;1276;1016045;-64
2023/05/26 04:58:34;;;;;;;;;;;;;;;18.71;76.85;99421.08;67897;1276;1016414;-63
2023/05/26 05:01:37;;;;;;;;;;;;;;;18.67;76.36;99414.70;67893;1276;1015903;-71
2023/05/26 05:04:42;;;;;;;;;;;;;;;18.69;76.56;99413.44;67870;1276;1018784;-73
2023/05/26 05:07:49;;;;;;;;;;;;;;;18.80;76.32;99415.53;67886;1276;1016204;-73
2023/05/26 05:10:52;;;;;;;;;;;;;;;18.86;76.70;99423.88;67909;1276;1016508;-73
2023/05/26 05:13:55;;;;;;;;;;;;;;;18.91;77.42;99422.95;67869;1276;1016384;-73
2023/05/26 05:16:57;;;;;;;;;;;;;;;19.06;76.78;99422.20;67903;1276;1015631;-71
2023/05/26 05:20:00;;;;;;;;;;;;;;;19.15;77.60;99430.25;67893;1276;1016386;-64
2023/05/26 05:23:03;;;;;;;;;;;;;;;19.21;76.19;99423.39;67929;1276;1016478;-73
2023/05/26 05:26:06;;;;;;;;;;;;;;;19.33;75.27;99424.13;67874;1276;1016169;-71
2023/05/26 05:29:10;;;;;;;;;;;;;;;19.37;75.30;99426.35;67940;1276;1016390;-72
2023/05/26 05:32:13;;;;;;;;;;;;;;;19.49;75.12;99419.89;67920;1276;1017478;-73
2023/05/26 05:35:16;;;;;;;;;;;;;;;19.58;74.97;99418.16;67888;1276;1016476;-70
2023/05/26 05:38:19;;;;;;;;;;;;;;;19.57;75.55;99418.77;67922;1276;1016576;-71
2023/05/26 05:41:22;;;;;;;;;;;;;;;19.73;74.17;99419.29;67901;1276;1016942;-73
2023/05/26 05:44:25;;;;;;;;;;;;;;;19.97;75.75;99421.98;67910;1276;1016676;-63
2023/05/26 05:47:28;;;;;;;;;;;;;;;20.18;75.14;99424.52;67907;1276;1018587;-72
2023/05/26 05:50:31;;;;;;;;;;;;;;;20.26;73.96;99428.05;67897;1276;1016545;-72
2023/05/26 05:53:34;;;;;;;;;;;;;;;20.23;72.85;99431.30;67870;1276;1016109;-73
2023/05/26 05:56:37;;;;;;;;;;;;;;;20.16;73.04;99431.77;67912;1276;1016308;-64
2023/05/26 05:59:40;;;;;;;;;;;;;;;20.23;73.28;99434.23;67871;1274;1016419;-64
2023/05/26 06:02:43;;;;;;;;;;;;;;;20.29;72.87;99430.45;67886;1276;1016445;-73
2023/05/26 06:05:46;;;;;;;;;;;;;;;20.44;72.72;99436.48;67902;1276;1016963;-72
2023/05/26 06:08:48;;;;;;;;;;;;;;;20.60;72.66;99438.41;67858;1276;1016929;-63
2023/05/26 06:11:51;;;;;;;;;;;;;;;20.63;71.88;99442.29;67911;1276;1016392;-72
2023/05/26 06:14:58;;;;;;;;;;;;;;;20.67;71.87;99449.67;67892;1276;1017389;-64
2023/05/26 06:18:01;;;;;;;;;;;;;;;20.57;71.33;99447.27;67935;1276;1017110;-73
2023/05/26 06:21:04;;;;;;;;;;;;;;;20.58;71.74;99444.48;67895;1276;1016814;-64
2023/05/26 06:24:06;;;;;;;;;;;;;;;20.70;71.88;99446.58;67896;1276;1018404;-72
2023/05/26 06:27:09;;;;;;;;;;;;;;;21.09;72.38;99443.08;67866;1276;1015963;-64
2023/05/26 06:30:12;;;;;;;;;;;;;;;21.60;70.64;99442.33;67898;1276;1016536;-73
2023/05/26 06:33:15;;;;;;;;;;;;;;;22.13;70.30;99441.94;67924;1276;1016215;-70
2023/05/26 06:36:18;;;;;;;;;;;;;;;22.80;69.13;99443.50;67910;1276;1015944;-64
2023/05/26 06:39:23;;;;;;;;;;;;;;;23.42;67.59;99445.67;67892;1276;1016622;-73
2023/05/26 06:42:26;;;;;;;;;;;;;;;24.02;66.45;99442.70;67926;1276;1016276;-67
2023/05/26 06:45:28;;;;;;;;;;;;;;;24.60;64.19;99447.96;67846;1276;1016914;-70
2023/05/26 06:48:31;;;;;;;;;;;;;;;25.12;63.47;99450.77;67856;1276;1019002;-64
2023/05/26 06:51:34;;;;;;;;;;;;;;;25.71;62.88;99450.75;67912;1276;1016119;-63
2023/05/26 06:54:38;;;;;;;;;;;;;;;26.29;60.85;99446.54;67884;1276;1016481;-70
2023/05/26 06:57:44;;;;;;;;;;;;;;;26.50;60.09;99446.86;67902;1276;1016275;-74
2023/05/26 07:00:48;;;;;;;;;;;;;;;26.56;59.16;99446.52;67868;1276;1016331;-71
2023/05/26 07:03:51;;;;;;;;;;;;;;;26.93;57.97;99450.21;67900;1276;1016373;-73
2023/05/26 07:06:55;;;;;;;;;;;;;;;27.18;54.81;99454.21;67907;1276;1016433;-73
2023/05/26 07:09:57;;;;;;;;;;;;;;;27.20;54.81;99452.30;67850;1276;1018655;-67
2023/05/26 07:13:00;;;;;;;;;;;;;;;27.47;56.54;99449.97;67906;1276;1016094;-74
2023/05/26 07:16:04;;;;;;;;;;;;;;;27.76;55.51;99449.15;67844;1276;1016353;-73
2023/05/26 07:19:07;;;;;;;;;;;;;;;27.86;52.36;99454.08;67878;1276;1016359;-73
2023/05/26 07:22:10;;;;;;;;;;;;;;;27.47;53.27;99453.55;67919;1276;1016475;-72
2023/05/26 07:25:13;;;;;;;;;;;;;;;27.21;53.40;99455.31;67889;1276;1018148;-74
2023/05/26 07:28:17;;;;;;;;;;;;;;;26.89;52.71;99456.57;67910;1276;1016456;-74
2023/05/26 07:31:20;;;;;;;;;;;;;;;26.62;52.87;99460.11;67908;1276;1016427;-74
2023/05/26 07:34:24;;;;;;;;;;;;;;;26.46;52.86;99457.51;67883;1276;1017426;-73
2023/05/26 07:37:27;;;;;;;;;;;;;;;25.96;53.32;99462.57;67867;1276;1019512;-73
2023/05/26 07:40:34;;;;;;;;;;;;;;;25.63;54.78;99459.50;67903;1276;1016410;-73
2023/05/26 07:43:36;;;;;;;;;;;;;;;25.66;54.27;99463.17;67899;1276;1016410;-72
2023/05/26 07:46:39;;;;;;;;;;;;;;;25.45;53.69;99465.70;67933;1276;1016717;-72
2023/05/26 07:49:43;;;;;;;;;;;;;;;25.10;54.70;99473.67;67904;1276;1016235;-74
2023/05/26 07:52:46;;;;;;;;;;;;;;;25.00;54.49;99468.48;67873;1276;1017249;-65
2023/05/26 07:55:52;;;;;;;;;;;;;;;25.06;55.14;99466.13;67899;1276;1016481;-73
2023/05/26 07:58:55;;;;;;;;;;;;;;;25.22;54.24;99466.70;67851;1275;1018547;-64
2023/05/26 08:01:59;;;;;;;;;;;;;;;25.40;54.58;99461.55;67931;1275;1016426;-73
2023/05/26 08:05:01;;;;;;;;;;;;;;;25.55;53.96;99463.17;67980;1275;1016482;-62
2023/05/26 08:08:04;;;;;;;;;;;;;;;25.65;53.34;99457.67;67888;1275;1016764;-65
2023/05/26 08:11:07;;;;;;;;;;;;;;;25.62;53.61;99461.33;67953;1275;1016339;-63
2023/05/26 08:14:09;;;;;;;;;;;;;;;25.65;53.67;99462.17;67905;1275;1016470;-63
2023/05/26 08:17:12;;;;;;;;;;;;;;;25.80;53.96;99457.35;67951;1275;1018933;-64
2023/05/26 08:20:16;;;;;;;;;;;;;;;26.10;52.22;99456.90;67944;1275;1016151;-63
2023/05/26 08:23:19;;;;;;;;;;;;;;;26.34;52.90;99457.36;67946;1275;1016015;-65
2023/05/26 08:26:25;;;;;;;;;;;;;;;26.51;51.45;99459.67;67945;1275;1016427;-64
2023/05/26 08:29:30;;;;;;;;;;;;;;;26.45;51.22;99462.81;67903;1275;1016439;-63
2023/05/26 08:32:34;;;;;;;;;;;;;;;26.49;50.85;99463.86;67978;1275;1016986;-64
2023/05/26 08:35:36;;;;;;;;;;;;;;;26.36;50.91;99465.33;67906;1275;1016337;-71
2023/05/26 08:38:39;;;;;;;;;;;;;;;26.22;52.09;99465.31;67940;1275;1016527;-66
2023/05/26 08:41:42;;;;;;;;;;;;;;;26.21;50.24;99462.02;67945;1275;1016412;-64
2023/05/26 08:44:54;;;;;;;;;;;;;;;26.10;50.77;99463.64;67952;1275;1016413;-71
2023/05/26 08:47:57;;;;;;;;;;;;;;;25.71;50.82;99465.05;67957;1275;1016466;-62
2023/05/26 08:50:59;;;;;;;;;;;;;;;25.66;51.11;99461.02;67926;1275;1015871;-62
2023/05/26 08:54:02;;;;;;;;;;;;;;;25.64;50.69;99461.61;67964;1275;1016139;-64
2023/05/26 08:57:06;;;;;;;;;;;;;;;25.77;50.38;99462.75;67961;1275;1019003;-64
2023/05/26 09:00:12;;;;;;;;;;;;;;;25.93;49.97;99453.95;67969;1275;1017848;-63
2023/05/26 09:03:15;;;;;;;;;;;;;;;25.97;50.78;99459.20;67912;1275;1016490;-62
2023/05/26 09:06:18;;;;;;;;;;;;;;;26.02;49.09;99460.89;67951;1275;1016285;-63
2023/05/26 09:09:20;;;;;;;;;;;;;;;26.19;48.77;99452.56;67964;1275;1016405;-63
2023/05/26 09:12:30;;;;;;;;;;;;;;;26.49;48.96;99449.66;68016;1275;1017115;-61
2023/05/26 09:15:33;;;;;;;;;;;;;;;27.14;48.20;99450.14;67980;1275;1016182;-64
2023/05/26 09:18:37;;;;;;;;;;;;;;;27.63;46.79;99452.56;67931;1275;1016505;-67
2023/05/26 09:21:40;;;;;;;;;;;;;;;27.84;46.07;99450.42;67992;1275;1016424;-63
2023/05/26 09:24:43;;;;;;;;;;;;;;;28.23;45.10;99447.05;67984;1275;1016369;-70
2023/05/26 09:27:48;;;;;;;;;;;;;;;28.84;44.41;99441.25;67998;1275;1016356;-64
2023/05/26 09:30:51;;;;;;;;;;;;;;;29.33;44.13;99439.23;67969;1275;1016499;-65
2023/05/26 09:33:56;;;;;;;;;;;;;;;29.87;43.56;99436.67;67972;1275;1016326;-66
2023/05/26 09:36:59;;;;;;;;;;;;;;;29.75;41.38;99441.55;68022;1275;1016384;-64
2023/05/26 09:40:11;;;;;;;;;;;;;;;29.15;41.70;99448.87;67973;1275;1016266;-70
2023/05/26 09:43:16;;;;;;;;;;;;;;;28.49;42.44;99448.30;67937;1275;1016319;-73
2023/05/26 09:46:18;;;;;;;;;;;;;;;27.78;44.11;99453.70;67951;1275;1016978;-64
2023/05/26 09:49:22;;;;;;;;;;;;;;;27.55;44.71;99450.77;67995;1275;1016769;-67
2023/05/26 09:52:25;;;;;;;;;;;;;;;27.93;43.94;99459.63;68024;1275;1016316;-64
2023/05/26 09:55:28;;;;;;;;;;;;;;;27.99;44.49;99459.92;67915;1275;1016966;-76
2023/05/26 09:58:38;;;;;;;;;;;;;;;27.84;42.92;99464.55;67945;1275;1016468;-75
2023/05/26 10:01:41;;;;;;;;;;;;;;;27.52;43.32;99464.25;67931;1275;1017249;-64
2023/05/26 10:04:43;;;;;;;;;;;;;;;27.28;43.14;99467.33;68013;1275;1019595;-74
2023/05/26 10:07:48;;;;;;;;;;;;;;;27.01;43.51;99464.41;67918;1275;1016372;-69
2023/05/26 10:10:50;;;;;;;;;;;;;;;26.86;44.42;99459.50;67795;1275;1017240;-68
2023/05/26 10:13:54;;;;;;;;;;;;;;;26.88;45.26;99458.27;67890;1275;1016391;-76
2023/05/26 10:17:00;;;;;;;;;;;;;;;26.94;43.63;99459.71;67959;1275;1016314;-76
2023/05/26 10:20:05;;;;;;;;;;;;;;;26.57;44.19;99464.79;67964;1275;1016314;-76
2023/05/26 10:23:07;;;;;;;;;;;;;;;26.32;42.71;99461.48;67955;1275;1016185;-76
2023/05/26 10:26:11;;;;;;;;;;;;;;;26.20;43.40;99455.46;67960;1275;1016167;-72
2023/05/26 10:29:14;;;;;;;;;;;;;;;26.19;43.94;99456.49;67994;1275;1016186;-76
2023/05/26 10:32:17;;;;;;;;;;;;;;;26.08;44.74;99454.59;67974;1275;1016748;-63
2023/05/26 10:35:19;;;;;;;;;;;;;;;26.04;44.48;99454.31;68024;1275;1016269;-71
2023/05/26 10:38:23;;;;;;;;;;;;;;;25.90;44.80;99467.52;67956;1275;1016462;-76
2023/05/26 10:41:26;;;;;;;;;;;;;;;25.29;46.19;99475.11;67996;1275;1015725;-74
2023/05/26 10:44:32;;;;;;;;;;;;;;;24.58;47.70;99477.67;67984;1275;1016478;-76
2023/05/26 10:47:35;;;;;;;;;;;;;;;24.03;49.61;99477.23;68005;1275;1016448;-63
2023/05/26 10:50:38;;;;;;;;;;;;;;;23.84;50.52;99478.17;67992;1275;1015818;-76
2023/05/26 10:53:42;;;;;;;;;;;;;;;23.47;51.33;99479.92;67974;1275;1016912;-76
2023/05/26 10:56:45;;;;;;;;;;;;;;;23.36;51.44;99482.52;67968;1275;1016363;-75
2023/05/26 10:59:47;;;;;;;;;;;;;;;23.24;51.48;99483.92;67970;1275;1016428;-76
2023/05/26 11:02:51;;;;;;;;;;;;;;;23.15;51.57;99481.80;67976;1275;1016138;-76
2023/05/26 11:05:55;;;;;;;;;;;;;;;23.13;51.49;99478.98;67967;1275;1016680;-69
2023/05/26 11:08:58;;;;;;;;;;;;;;;23.12;51.00;99481.55;68012;1275;1016390;-76
2023/05/26 11:12:02;;;;;;;;;;;;;;;23.25;51.26;99479.35;67982;1275;1016444;-76
2023/05/26 11:15:05;;;;;;;;;;;;;;;23.34;50.79;99479.83;67983;1275;1016693;-76
2023/05/26 11:18:09;;;;;;;;;;;;;;;23.36;50.81;99473.95;67970;1275;1016477;-75
2023/05/26 11:21:13;;;;;;;;;;;;;;;23.39;50.25;99474.30;68008;1275;1016452;-76
2023/05/26 11:24:16;;;;;;;;;;;;;;;23.51;50.26;99474.31;68034;1275;1016225;-77
2023/05/26 11:27:20;;;;;;;;;;;;;;;23.60;50.45;99478.19;67960;1275;1016677;-75
2023/05/26 11:30:23;;;;;;;;;;;;;;;23.72;50.08;99475.29;67957;1275;1016619;-76
2023/05/26 11:33:27;;;;;;;;;;;;;;;23.92;50.19;99470.81;68029;1275;1016474;-63
2023/05/26 11:36:30;;;;;;;;;;;;;;;24.07;49.65;99462.03;68024;1275;1016213;-64
2023/05/26 11:39:35;;;;;;;;;;;;;;;24.24;50.00;99456.23;67983;1275;1015682;-76
2023/05/26 11:42:37;;;;;;;;;;;;;;;24.40;49.47;99449.20;68011;1275;1016123;-76
2023/05/26 11:45:42;;;;;;;;;;;;;;;24.72;49.45;99446.59;67992;1275;1016420;-64
2023/05/26 11:48:45;;;;;;;;;;;;;;;25.01;48.69;99445.96;67967;1275;1016406;-76
2023/05/26 11:51:50;;;;;;;;;;;;;;;25.15;48.71;99441.28;68028;1275;1016243;-76
2023/05/26 11:54:52;;;;;;;;;;;;;;;25.28;48.75;99439.86;68007;1275;1016214;-76
2023/05/26 11:57:56;;;;;;;;;;;;;;;25.34;46.78;99439.25;67931;1275;1016790;-68
2023/05/26 12:00:59;;;;;;;;;;;;;;;25.29;47.33;99435.23;68017;1275;1016023;-71
2023/05/26 12:04:04;;;;;;;;;;;;;;;25.59;47.45;99432.77;68008;1275;1015800;-66
2023/05/26 12:07:08;;;;;;;;;;;;;;;26.10;46.46;99430.10;67964;1275;1016483;-62
2023/05/26 12:10:12;;;;;;;;;;;;;;;26.40;46.20;99433.11;68024;1275;1016408;-75
2023/05/26 12:13:15;;;;;;;;;;;;;;;26.74;43.11;99428.78;67988;1275;1016328;-63
2023/05/26 12:16:18;;;;;;;;;;;;;;;26.95;40.74;99433.19;65586;1275;5385216;-63
2023/05/26 12:19:21;;;;;;;;;;;;;;;26.64;41.07;99433.19;68023;1275;1016455;-70
2023/05/26 12:22:24;;;;;;;;;;;;;;;26.26;41.73;99434.94;67923;1275;1016469;-67
2023/05/26 12:25:26;;;;;;;;;;;;;;;26.13;41.37;99435.86;67939;1275;1016542;-70
2023/05/26 12:28:30;;;;;;;;;;;;;;;26.16;42.22;99434.86;67924;1275;1016454;-62
2023/05/26 12:31:33;;;;;;;;;;;;;;;26.26;41.25;99441.78;67961;1275;1016497;-63
2023/05/26 12:34:36;;;;;;;;;;;;;;;26.33;41.49;99432.52;68032;1275;1016487;-64
2023/05/26 12:37:39;;;;;;;;;;;;;;;26.57;42.03;99427.04;67976;1275;1019342;-63
2023/05/26 12:40:46;;;;;;;;;;;;;;;26.66;40.12;99431.83;68017;1275;1016351;-66
2023/05/26 12:43:48;;;;;;;;;;;;;;;26.68;40.44;99431.11;67874;1275;1016511;-62
2023/05/26 12:46:51;;;;;;;;;;;;;;;26.52;39.86;99422.05;68023;1275;1016441;-63
2023/05/26 12:49:56;;;;;;;;;;;;;;;26.62;39.91;99423.40;67964;1275;1016172;-67
2023/05/26 12:53:00;;;;;;;;;;;;;;;27.24;39.32;99424.05;67993;1275;1016453;-73
2023/05/26 12:56:03;;;;;;;;;;;;;;;27.55;38.08;99427.08;67949;1275;1016442;-67
2023/05/26 12:59:05;;;;;;;;;;;;;;;27.96;37.79;99413.55;67995;1275;1016272;-67
2023/05/26 13:02:08;;;;;;;;;;;;;;;28.19;36.56;99413.81;67977;1275;1017253;-74
2023/05/26 13:05:11;;;;;;;;;;;;;;;27.95;36.42;99414.79;67972;1275;1016304;-64
2023/05/26 13:08:13;;;;;;;;;;;;;;;28.01;37.10;99414.97;68010;1275;1016647;-65
2023/05/26 13:11:17;;;;;;;;;;;;;;;27.58;37.19;99413.14;67998;1275;1018788;-65
2023/05/26 13:14:21;;;;;;;;;;;;;;;27.10;38.03;99407.05;68009;1275;1015950;-62
2023/05/26 13:17:24;;;;;;;;;;;;;;;26.96;38.09;99413.70;68011;1275;1016183;-65
2023/05/26 13:20:26;;;;;;;;;;;;;;;27.03;37.98;99398.72;67884;1275;1016384;-63
2023/05/26 13:23:29;;;;;;;;;;;;;;;27.33;38.04;99396.92;67997;1275;1016286;-64
2023/05/26 13:26:32;;;;;;;;;;;;;;;27.30;36.72;99404.10;68011;1275;1016438;-63
2023/05/26 13:29:35;;;;;;;;;;;;;;;27.07;37.29;99397.13;67973;1275;1016434;-63
2023/05/26 13:32:40;;;;;;;;;;;;;;;26.92;37.35;99394.85;67946;1275;1016131;-71
2023/05/26 13:35:42;;;;;;;;;;;;;;;27.03;37.13;99392.35;68031;1275;1016887;-72
2023/05/26 13:38:45;;;;;;;;;;;;;;;26.97;37.11;99396.74;68019;1275;1016454;-64
2023/05/26 13:41:48;;;;;;;;;;;;;;;27.07;35.72;99394.27;68008;1275;1016024;-62
2023/05/26 13:44:51;;;;;;;;;;;;;;;27.11;35.37;99396.64;67980;1275;1016171;-65
2023/05/26 13:47:53;;;;;;;;;;;;;;;27.16;35.52;99402.38;67969;1275;1015770;-62
2023/05/26 13:50:56;;;;;;;;;;;;;;;27.22;35.50;99401.29;67999;1275;1016391;-63
2023/05/26 13:53:59;;;;;;;;;;;;;;;27.53;35.88;99392.48;67982;1275;1019805;-63
2023/05/26 13:57:03;;;;;;;;;;;;;;;27.63;35.58;99395.98;67960;1275;1016116;-62
2023/05/26 14:00:06;;;;;;;;;;;;;;;27.88;34.82;99397.17;67966;1275;1016195;-65
2023/05/26 14:03:09;;;;;;;;;;;;;;;28.10;34.21;99392.34;67939;1275;1016106;-67
2023/05/26 14:06:11;;;;;;;;;;;;;;;28.21;34.13;99395.18;67972;1275;1016491;-69
2023/05/26 14:09:15;;;;;;;;;;;;;;;28.22;33.21;99383.08;67990;1275;1016507;-64
2023/05/26 14:12:18;;;;;;;;;;;;;;;28.43;34.15;99375.67;67964;1275;1016464;-63
2023/05/26 14:15:21;;;;;;;;;;;;;;;28.67;33.82;99383.46;67951;1275;1016690;-69
2023/05/26 14:18:24;;;;;;;;;;;;;;;28.32;32.60;99384.80;67942;1275;1018806;-61
2023/05/26 14:21:27;;;;;;;;;;;;;;;28.12;33.83;99383.70;67922;1275;1016466;-62
2023/05/26 14:24:30;;;;;;;;;;;;;;;28.29;33.36;99381.38;67949;1275;1016302;-62
2023/05/26 14:27:33;;;;;;;;;;;;;;;28.15;32.69;99381.90;67986;1275;1016452;-64
2023/05/26 14:30:36;;;;;;;;;;;;;;;28.05;33.15;99376.45;67987;1275;1016489;-68
2023/05/26 14:33:39;;;;;;;;;;;;;;;28.23;33.43;99372.58;67925;1275;1016543;-62
2023/05/26 14:36:42;;;;;;;;;;;;;;;28.06;32.33;99375.73;67991;1275;1016480;-66
2023/05/26 14:39:45;;;;;;;;;;;;;;;27.83;33.21;99374.27;67980;1275;1015798;-62
2023/05/26 14:42:47;;;;;;;;;;;;;;;27.87;32.86;99380.66;67961;1275;1016383;-62
2023/05/26 14:45:50;;;;;;;;;;;;;;;27.88;32.62;99378.28;68000;1275;1015931;-65
2023/05/26 14:48:54;;;;;;;;;;;;;;;27.91;31.90;99365.34;67933;1275;1016358;-62
2023/05/26 14:51:56;;;;;;;;;;;;;;;27.73;32.38;99375.09;67983;1275;1016374;-65
2023/05/26 14:55:00;;;;;;;;;;;;;;;27.83;31.64;99374.05;67977;1275;1016379;-64
2023/05/26 14:58:09;;;;;;;;;;;;;;;27.58;30.07;99380.94;67977;1275;1018675;-62
2023/05/26 15:01:12;;;;;;;;;;;;;;;27.66;29.14;99377.92;67930;1275;1016886;-66
2023/05/26 15:04:15;;;;;;;;;;;;;;;27.82;28.65;99383.22;67899;1275;1016294;-68
2023/05/26 15:07:19;;;;;;;;;;;;;;;27.80;29.42;99378.92;67811;1275;1016254;-63
2023/05/26 15:10:22;;;;;;;;;;;;;;;28.92;27.35;99386.21;67761;1275;1016204;-63
2023/05/26 15:13:24;;;;;;;;;;;;;;;29.83;25.56;99386.55;67848;1275;1016411;-68
2023/05/26 15:16:27;;;;;;;;;;;;;;;30.72;25.56;99380.70;67968;1275;1016779;-63
2023/05/26 15:19:29;;;;;;;;;;;;;;;31.58;24.63;99387.42;67986;1275;1016360;-69
2023/05/26 15:22:31;;;;;;;;;;;;;;;31.90;23.41;99380.55;68037;1275;1016328;-64
2023/05/26 15:25:34;;;;;;;;;;;;;;;32.33;23.67;99380.07;67985;1275;1016523;-66
2023/05/26 15:28:37;;;;;;;;;;;;;;;32.40;22.70;99384.89;67976;1275;1016664;-74
2023/05/26 15:31:39;;;;;;;;;;;;;;;31.16;24.04;99384.58;67969;1275;1016492;-74
2023/05/26 15:34:42;;;;;;;;;;;;;;;30.88;24.54;99383.84;67989;1275;1016679;-72